Terminal Aerodrome Forecast
Issued by NWS

Home | Current Version | Previous Version | Text Only | Print | Product List | Glossary On
Versions: 1 2 3 4 5 6 7 8 9 10 11 12 13 14 15 16 17 18
000
FTUS46 KLOX 292333
TAFPMD
TAF
KPMD 292333Z 3000/3024 29008KT P6SM SKC
     FM300200 26012KT P6SM SKC
     FM300600 25009KT P6SM SKC
     FM301100 26014KT P6SM SKC
     FM301500 26020G28KT P6SM SCT250
     FM301800 27025G33KT P6SM SCT250
     FM302100 27035G45KT 2SM BLDU SCT250=

USA.gov is the U.S. government's official web portal to all federal, state and local government web resources and services.